createdAt,value
2018-11-29T00:00:39.480Z,92.30
2018-11-29T00:03:09.883Z,92.40
2018-11-29T00:05:43.995Z,92.50
2018-11-29T00:08:18.393Z,92.60
2018-11-29T00:10:46.643Z,92.60
2018-11-29T00:13:14.704Z,92.50
2018-11-29T00:15:42.735Z,92.50
2018-11-29T00:18:13.210Z,92.70
2018-11-29T00:20:41.179Z,92.90
2018-11-29T00:23:09.225Z,92.80
2018-11-29T00:25:37.295Z,92.90
2018-11-29T00:28:06.033Z,92.80
2018-11-29T00:30:34.267Z,92.90
2018-11-29T00:33:02.338Z,92.80
2018-11-29T00:35:30.424Z,92.80
2018-11-29T00:37:58.555Z,92.90
2018-11-29T00:40:27.918Z,92.90
2018-11-29T00:42:56.117Z,92.90
2018-11-29T00:45:24.159Z,92.90
2018-11-29T00:47:52.351Z,93.00
2018-11-29T00:50:20.780Z,93.00
2018-11-29T00:52:52.178Z,93.00
2018-11-29T00:55:21.759Z,93.00
2018-11-29T00:57:50.054Z,93.40
2018-11-29T01:00:20.244Z,93.20
2018-11-29T01:02:48.564Z,93.10
2018-11-29T01:05:20.496Z,93.10
2018-11-29T01:07:49.542Z,93.10
2018-11-29T01:10:18.110Z,93.10
2018-11-29T01:12:46.886Z,93.10
2018-11-29T01:15:17.942Z,93.20
2018-11-29T01:17:47.149Z,93.40
2018-11-29T01:20:16.923Z,93.30
2018-11-29T01:22:44.938Z,93.30
2018-11-29T01:25:14.155Z,93.30
2018-11-29T01:27:43.767Z,93.20
2018-11-29T01:30:13.094Z,93.20
2018-11-29T01:32:41.116Z,93.20
2018-11-29T01:35:10.958Z,93.20
2018-11-29T01:37:38.999Z,93.20
2018-11-29T01:40:10.028Z,93.40
2018-11-29T01:42:37.966Z,93.40
2018-11-29T01:45:05.991Z,93.40
2018-11-29T01:47:33.979Z,93.70
2018-11-29T01:50:01.954Z,93.60
2018-11-29T01:52:29.904Z,93.80
2018-11-29T01:54:57.827Z,93.70
2018-11-29T01:57:25.808Z,93.90
2018-11-29T01:59:53.839Z,93.80
2018-11-29T02:02:21.767Z,94.50
2018-11-29T02:04:50.062Z,94.00
2018-11-29T02:07:24.735Z,93.80
2018-11-29T02:09:57.283Z,93.70
2018-11-29T02:12:25.292Z,93.80
2018-11-29T02:14:53.235Z,93.70
2018-11-29T02:17:21.215Z,93.70
2018-11-29T02:19:49.142Z,93.70
2018-11-29T02:22:17.114Z,93.70
2018-11-29T02:24:45.191Z,93.60
2018-11-29T02:27:13.152Z,93.60
2018-11-29T02:29:41.147Z,93.60
2018-11-29T02:32:09.176Z,93.60
2018-11-29T02:34:37.170Z,93.60
2018-11-29T02:37:05.405Z,93.50
2018-11-29T02:39:33.439Z,93.50
2018-11-29T02:42:01.383Z,93.60
2018-11-29T02:44:29.387Z,93.60
2018-11-29T02:46:57.518Z,93.50
2018-11-29T02:49:25.480Z,93.50
2018-11-29T02:51:53.411Z,93.50
2018-11-29T02:54:21.650Z,93.50
2018-11-29T02:56:49.628Z,93.50
2018-11-29T02:59:17.568Z,93.60
2018-11-29T03:01:47.873Z,93.60
2018-11-29T03:04:17.440Z,93.60
2018-11-29T03:06:45.400Z,93.60
2018-11-29T03:09:13.380Z,93.50
2018-11-29T03:11:41.415Z,93.70
2018-11-29T03:14:09.462Z,93.70
2018-11-29T03:16:37.476Z,93.80
2018-11-29T03:19:05.863Z,93.70
2018-11-29T03:21:33.909Z,93.70
2018-11-29T03:24:02.014Z,94.20
2018-11-29T03:26:30.092Z,93.80
2018-11-29T03:28:59.604Z,93.80
2018-11-29T03:31:27.627Z,94.10
2018-11-29T03:33:55.557Z,94.20
2018-11-29T03:36:23.585Z,94.30
2018-11-29T03:38:51.626Z,94.40
2018-11-29T03:41:19.596Z,94.10
2018-11-29T03:43:47.575Z,94.10
2018-11-29T03:46:15.506Z,93.90
2018-11-29T03:48:43.427Z,93.90
2018-11-29T03:51:11.360Z,93.80
2018-11-29T03:53:39.352Z,93.70
2018-11-29T03:56:07.310Z,93.60
2018-11-29T03:58:35.571Z,93.60
2018-11-29T04:01:03.591Z,93.60
2018-11-29T04:03:31.640Z,93.50
2018-11-29T04:05:59.732Z,93.60
2018-11-29T04:08:27.681Z,94.60
2018-11-29T04:10:55.770Z,94.00
2018-11-29T04:13:23.730Z,94.10
2018-11-29T04:15:51.648Z,94.20
2018-11-29T04:18:19.583Z,94.00
2018-11-29T04:20:47.586Z,93.90
2018-11-29T04:23:15.595Z,93.80
2018-11-29T04:25:43.523Z,93.60
2018-11-29T04:28:11.467Z,93.70
2018-11-29T04:30:40.015Z,93.60
2018-11-29T04:33:07.923Z,93.60
2018-11-29T04:35:35.860Z,93.80
2018-11-29T04:38:04.098Z,93.70
2018-11-29T04:40:32.599Z,93.80
2018-11-29T04:43:00.645Z,93.90
2018-11-29T04:45:48.319Z,93.90
2018-11-29T04:48:16.383Z,93.90
2018-11-29T04:50:44.352Z,93.80
2018-11-29T04:53:12.246Z,93.80
2018-11-29T04:55:40.148Z,93.70
2018-11-29T04:58:08.183Z,93.70
2018-11-29T05:00:36.887Z,93.60
2018-11-29T05:03:05.256Z,93.90
2018-11-29T05:05:33.266Z,93.70
2018-11-29T05:08:01.151Z,93.60
2018-11-29T05:10:29.063Z,93.40
2018-11-29T05:12:57.009Z,93.50
2018-11-29T05:15:24.981Z,93.50
2018-11-29T05:17:52.928Z,93.70
2018-11-29T05:20:20.850Z,93.60
2018-11-29T05:22:48.792Z,93.50
2018-11-29T05:25:17.122Z,94.00
2018-11-29T05:27:44.746Z,94.10
2018-11-29T05:30:13.683Z,94.20
2018-11-29T05:32:41.778Z,94.10
2018-11-29T05:35:11.051Z,93.80
2018-11-29T05:37:39.027Z,93.80
2018-11-29T05:40:10.213Z,93.80
2018-11-29T05:42:38.531Z,94.00
2018-11-29T05:45:07.826Z,93.80
2018-11-29T05:47:35.820Z,93.80
2018-11-29T05:50:06.105Z,93.80
2018-11-29T05:55:10.615Z,93.70
2018-11-29T05:57:38.555Z,93.70
2018-11-29T06:00:10.373Z,93.80
2018-11-29T06:02:38.451Z,93.70
2018-11-29T06:05:08.307Z,93.80
2018-11-29T06:07:36.606Z,93.70
2018-11-29T06:10:04.875Z,93.80
2018-11-29T06:12:33.669Z,93.80
2018-11-29T06:15:01.930Z,94.00
2018-11-29T06:17:29.877Z,93.80
2018-11-29T06:19:57.829Z,93.80
2018-11-29T06:22:26.082Z,93.80
2018-11-29T06:24:54.038Z,93.60
2018-11-29T06:27:22.215Z,93.60
2018-11-29T06:29:50.204Z,93.70
2018-11-29T06:32:18.232Z,93.60
2018-11-29T06:34:46.135Z,93.50
2018-11-29T06:37:16.462Z,93.60
2018-11-29T06:39:44.341Z,93.40
2018-11-29T06:42:12.346Z,93.30
2018-11-29T06:44:40.335Z,93.50
2018-11-29T06:47:08.226Z,93.40
2018-11-29T06:49:36.198Z,93.60
2018-11-29T06:52:05.187Z,94.60
2018-11-29T06:54:33.223Z,94.10
2018-11-29T06:57:01.148Z,93.80
2018-11-29T06:59:29.310Z,93.70
2018-11-29T07:01:57.240Z,93.30
2018-11-29T07:04:25.339Z,93.20
2018-11-29T07:06:56.521Z,92.90
2018-11-29T07:09:24.421Z,93.00
2018-11-29T07:11:52.443Z,93.00
2018-11-29T07:14:20.824Z,92.70
2018-11-29T07:16:48.710Z,93.70
2018-11-29T07:19:16.658Z,93.00
2018-11-29T07:21:51.475Z,92.80
2018-11-29T07:24:19.679Z,92.90
2018-11-29T07:26:49.418Z,92.50
2018-11-29T07:29:17.278Z,92.10
2018-11-29T07:31:45.587Z,91.40
2018-11-29T07:34:13.723Z,91.10
2018-11-29T07:36:41.715Z,90.90
2018-11-29T07:39:10.060Z,91.30
2018-11-29T07:41:39.464Z,90.30
2018-11-29T07:44:11.161Z,85.60
2018-11-29T07:46:39.290Z,78.70
2018-11-29T07:49:07.346Z,73.50
2018-11-29T07:51:35.558Z,67.70
2018-11-29T07:54:03.607Z,63.60
2018-11-29T07:56:31.509Z,60.40
2018-11-29T07:58:59.489Z,57.90
2018-11-29T08:01:28.705Z,55.70
2018-11-29T08:03:56.763Z,53.40
2018-11-29T08:06:24.655Z,51.10
2018-11-29T08:08:52.696Z,49.30
2018-11-29T08:11:20.901Z,47.50
2018-11-29T08:13:48.798Z,47.90
2018-11-29T08:16:16.782Z,46.00
2018-11-29T08:18:44.690Z,44.00
2018-11-29T08:21:12.598Z,42.00
2018-11-29T08:23:40.536Z,40.70
2018-11-29T08:26:08.459Z,40.00
2018-11-29T08:28:39.287Z,38.80
2018-11-29T08:31:07.478Z,37.60
2018-11-29T08:33:40.864Z,36.00
2018-11-29T08:36:10.201Z,36.10
2018-11-29T08:38:39.214Z,35.10
2018-11-29T08:41:07.758Z,34.30
2018-11-29T08:43:36.131Z,33.30
2018-11-29T08:46:04.228Z,32.40
2018-11-29T08:48:32.507Z,31.60
2018-11-29T08:53:34.884Z,29.90
2018-11-29T08:56:08.743Z,29.50
2018-11-29T08:58:36.997Z,29.10
2018-11-29T09:01:06.329Z,27.60
2018-11-29T09:03:34.224Z,27.80
2018-11-29T09:06:02.179Z,27.90
2018-11-29T09:08:36.860Z,27.40
2018-11-29T09:11:05.320Z,26.40
2018-11-29T09:13:33.528Z,25.90
2018-11-29T09:16:01.434Z,26.60
2018-11-29T09:18:31.336Z,25.90
2018-11-29T09:20:59.379Z,25.10
2018-11-29T09:23:27.382Z,25.20
2018-11-29T09:25:56.251Z,24.60
2018-11-29T09:28:24.379Z,24.50
2018-11-29T09:30:54.064Z,23.30
2018-11-29T09:33:22.117Z,24.30
2018-11-29T09:35:50.043Z,23.90
2018-11-29T09:38:21.717Z,23.30
2018-11-29T09:40:56.247Z,23.00
2018-11-29T09:43:24.233Z,22.80
2018-11-29T09:45:52.138Z,22.00
2018-11-29T09:48:20.031Z,21.50
2018-11-29T09:50:48.008Z,20.50
2018-11-29T09:53:15.979Z,21.10
2018-11-29T09:55:43.988Z,20.40
2018-11-29T09:58:14.104Z,20.30
2018-11-29T10:00:42.531Z,19.90
2018-11-29T10:03:15.019Z,19.70
2018-11-29T10:05:44.501Z,19.50
2018-11-29T10:08:15.239Z,19.30
2018-11-29T10:10:43.170Z,19.00
2018-11-29T10:13:11.401Z,18.80
2018-11-29T10:15:39.460Z,18.50
2018-11-29T10:18:08.619Z,18.80
2018-11-29T10:20:36.537Z,18.40
2018-11-29T10:23:05.959Z,18.00
2018-11-29T10:25:34.061Z,16.90
2018-11-29T10:28:07.658Z,17.70
2018-11-29T10:30:47.196Z,17.90
2018-11-29T10:33:15.625Z,17.70
2018-11-29T10:35:44.455Z,17.40
2018-11-29T10:38:12.359Z,16.70
2018-11-29T10:40:41.780Z,17.40
2018-11-29T10:43:10.187Z,17.50
2018-11-29T10:45:38.183Z,17.20
2018-11-29T10:48:11.335Z,16.90
2018-11-29T10:50:39.444Z,17.80
2018-11-29T10:53:08.632Z,18.30
2018-11-29T10:55:36.987Z,18.30
2018-11-29T10:58:06.691Z,18.60
2018-11-29T11:00:40.136Z,17.70
2018-11-29T11:03:13.699Z,16.70
2018-11-29T11:05:45.802Z,18.10
2018-11-29T11:08:13.997Z,18.20
2018-11-29T11:10:41.872Z,18.50
2018-11-29T11:13:09.808Z,17.90
2018-11-29T11:15:38.167Z,17.50
2018-11-29T11:18:07.741Z,17.10
2018-11-29T11:20:37.452Z,16.90
2018-11-29T11:23:08.920Z,16.60
2018-11-29T11:25:38.400Z,16.90
2018-11-29T11:28:08.075Z,16.80
2018-11-29T11:30:39.621Z,16.90
2018-11-29T11:33:07.577Z,16.80
2018-11-29T11:35:35.555Z,16.60
2018-11-29T11:38:03.448Z,16.10
2018-11-29T11:40:31.425Z,16.60
2018-11-29T11:42:59.331Z,16.10
2018-11-29T11:45:27.519Z,16.30
2018-11-29T11:48:03.150Z,16.20
2018-11-29T11:50:26.003Z,16.50
2018-11-29T11:52:55.048Z,16.60
2018-11-29T11:55:29.959Z,16.10
2018-11-29T11:57:52.754Z,16.50
2018-11-29T12:00:25.193Z,16.40
2018-11-29T12:03:07.405Z,17.30
2018-11-29T12:05:35.967Z,16.90
2018-11-29T12:08:06.199Z,16.60
2018-11-29T12:10:35.323Z,16.30
2018-11-29T12:13:03.400Z,16.40
2018-11-29T12:15:31.500Z,16.20
2018-11-29T12:17:59.601Z,16.70
2018-11-29T12:20:27.571Z,16.70
2018-11-29T12:22:55.547Z,16.70
2018-11-29T12:25:23.488Z,17.30
2018-11-29T12:27:52.133Z,17.10
2018-11-29T12:30:24.599Z,17.80
2018-11-29T12:32:56.555Z,17.10
2018-11-29T12:35:24.883Z,17.30
2018-11-29T12:37:53.313Z,17.10
2018-11-29T12:40:21.053Z,17.90
2018-11-29T12:42:48.958Z,17.00
2018-11-29T12:45:17.157Z,16.60
2018-11-29T12:47:45.368Z,17.60
2018-11-29T12:50:18.923Z,18.00
2018-11-29T12:52:47.128Z,17.70
2018-11-29T12:55:16.412Z,17.50
2018-11-29T12:57:44.472Z,17.80
2018-11-29T13:00:17.695Z,18.00
2018-11-29T13:02:49.903Z,17.90
2018-11-29T13:05:18.352Z,17.60
2018-11-29T13:07:46.307Z,18.00
2018-11-29T13:10:16.145Z,18.80
2018-11-29T13:12:44.072Z,20.40
2018-11-29T13:15:16.439Z,20.50
2018-11-29T13:17:44.594Z,20.90
2018-11-29T13:20:14.010Z,21.20
2018-11-29T13:22:42.020Z,21.50
2018-11-29T13:25:14.540Z,21.20
2018-11-29T13:27:42.450Z,21.50
2018-11-29T13:30:13.834Z,22.00
2018-11-29T13:32:43.906Z,22.70
2018-11-29T13:35:16.264Z,23.40
2018-11-29T13:37:49.564Z,23.30
2018-11-29T13:42:45.470Z,23.30
2018-11-29T13:45:13.688Z,23.90
2018-11-29T13:47:42.031Z,24.00
2018-11-29T13:50:14.041Z,24.10
2018-11-29T13:52:42.536Z,23.80
2018-11-29T13:55:12.777Z,24.70
2018-11-29T13:57:42.262Z,25.70
2018-11-29T14:00:25.821Z,25.50
2018-11-29T14:03:01.103Z,26.00
2018-11-29T14:05:29.092Z,26.90
2018-11-29T14:08:03.128Z,27.80
2018-11-29T14:10:31.624Z,27.60
2018-11-29T14:12:59.671Z,28.30
2018-11-29T14:15:28.365Z,28.60
2018-11-29T14:17:57.194Z,28.80
2018-11-29T14:20:25.339Z,29.70
2018-11-29T14:22:53.334Z,30.50
2018-11-29T14:25:21.515Z,32.30
2018-11-29T14:27:51.364Z,34.10
2018-11-29T14:30:22.503Z,36.20
2018-11-29T14:32:51.058Z,37.60
2018-11-29T14:35:19.131Z,39.00
2018-11-29T14:37:47.035Z,40.40
2018-11-29T14:40:18.503Z,41.00
2018-11-29T14:42:46.434Z,42.60
2018-11-29T14:45:16.047Z,43.80
2018-11-29T14:47:44.244Z,45.50
2018-11-29T14:50:20.729Z,45.80
2018-11-29T14:52:49.509Z,47.40
2018-11-29T14:55:17.455Z,48.20
2018-11-29T14:57:45.467Z,48.00
2018-11-29T15:00:13.814Z,48.80
2018-11-29T15:02:42.120Z,50.30
2018-11-29T15:05:19.272Z,50.70
2018-11-29T15:10:21.400Z,50.60
2018-11-29T15:12:49.275Z,51.30
2018-11-29T15:15:17.207Z,52.60
2018-11-29T15:17:46.251Z,52.70
2018-11-29T15:20:20.071Z,52.70
2018-11-29T15:22:48.041Z,52.90
2018-11-29T15:25:16.036Z,53.60
2018-11-29T15:27:44.007Z,54.40
2018-11-29T15:30:14.624Z,55.10
2018-11-29T15:32:42.567Z,55.00
2018-11-29T15:35:10.584Z,56.40
2018-11-29T15:37:38.566Z,56.10
2018-11-29T15:40:12.963Z,56.60
2018-11-29T15:42:44.478Z,57.70
2018-11-29T15:45:19.916Z,57.90
2018-11-29T15:47:48.463Z,58.30
2018-11-29T15:50:17.017Z,59.10
2018-11-29T15:52:45.011Z,59.30
2018-11-29T15:55:15.153Z,60.60
2018-11-29T15:57:43.940Z,60.70
2018-11-29T16:00:15.870Z,61.50
2018-11-29T16:02:44.807Z,61.80
2018-11-29T16:05:12.744Z,62.10
2018-11-29T16:07:40.922Z,62.70
2018-11-29T16:10:13.074Z,63.90
2018-11-29T16:12:41.264Z,63.50
2018-11-29T16:15:14.181Z,63.90
2018-11-29T16:17:42.515Z,66.50
2018-11-29T16:20:13.302Z,66.50
2018-11-29T16:22:41.348Z,66.90
2018-11-29T16:25:10.807Z,67.60
2018-11-29T16:27:38.809Z,69.40
2018-11-29T16:30:17.756Z,69.20
2018-11-29T16:32:45.699Z,68.70
2018-11-29T16:35:13.600Z,69.00
2018-11-29T16:37:41.553Z,68.90
2018-11-29T16:40:09.504Z,69.50
2018-11-29T16:42:37.516Z,70.00
2018-11-29T16:45:09.541Z,70.40
2018-11-29T16:47:37.511Z,70.90
2018-11-29T16:50:08.279Z,71.40
2018-11-29T16:52:36.230Z,72.20
2018-11-29T16:55:05.518Z,74.00
2018-11-29T16:57:33.554Z,73.00
2018-11-29T17:00:01.592Z,74.20
2018-11-29T17:02:29.535Z,76.10
2018-11-29T17:05:01.532Z,75.50
2018-11-29T17:07:29.776Z,75.90
2018-11-29T17:09:58.455Z,75.60
2018-11-29T17:12:26.749Z,75.60
2018-11-29T17:14:54.715Z,75.80
2018-11-29T17:17:22.663Z,77.40
2018-11-29T17:22:25.252Z,77.60
2018-11-29T17:24:53.234Z,77.50
2018-11-29T17:27:21.180Z,77.30
2018-11-29T17:29:49.092Z,78.30
2018-11-29T17:32:17.339Z,77.60
2018-11-29T17:34:45.372Z,77.70
2018-11-29T17:37:13.467Z,78.00
2018-11-29T17:39:41.781Z,78.40
2018-11-29T17:42:09.843Z,78.60
2018-11-29T17:44:37.759Z,78.70
2018-11-29T17:47:09.175Z,79.20
2018-11-29T17:49:37.151Z,79.50
2018-11-29T17:52:05.509Z,79.60
2018-11-29T17:54:34.146Z,80.30
2018-11-29T17:57:02.163Z,79.70
2018-11-29T17:59:30.163Z,80.00
2018-11-29T18:01:58.130Z,80.20
2018-11-29T18:04:26.084Z,80.90
2018-11-29T18:06:54.082Z,81.30
2018-11-29T18:09:22.154Z,81.50
2018-11-29T18:11:50.112Z,81.60
2018-11-29T18:14:18.751Z,81.40
2018-11-29T18:16:46.706Z,81.80
2018-11-29T18:19:14.636Z,82.40
2018-11-29T18:21:43.215Z,82.10
2018-11-29T18:24:10.944Z,82.20
2018-11-29T18:26:39.807Z,81.80
2018-11-29T18:29:08.009Z,82.10
2018-11-29T18:31:35.881Z,82.30
2018-11-29T18:34:03.887Z,82.20
2018-11-29T18:39:09.094Z,83.60
2018-11-29T18:41:37.182Z,84.10
2018-11-29T18:44:05.943Z,84.40
2018-11-29T18:46:33.897Z,84.20
2018-11-29T18:49:01.807Z,84.30
2018-11-29T18:51:29.775Z,84.40
2018-11-29T18:53:57.795Z,84.70
2018-11-29T18:56:25.820Z,84.60
2018-11-29T18:58:54.609Z,84.70
2018-11-29T19:01:22.531Z,84.50
2018-11-29T19:03:54.579Z,84.70
2018-11-29T19:06:22.553Z,84.80
2018-11-29T19:08:50.476Z,84.80
2018-11-29T19:11:18.458Z,85.10
2018-11-29T19:13:46.391Z,85.40
2018-11-29T19:16:14.342Z,85.40
2018-11-29T19:18:42.743Z,86.00
2018-11-29T19:21:10.683Z,86.00
2018-11-29T19:23:38.683Z,85.40
2018-11-29T19:26:07.086Z,85.30
2018-11-29T19:28:35.103Z,85.40
2018-11-29T19:31:03.177Z,86.20
2018-11-29T19:33:31.147Z,85.40
2018-11-29T19:35:59.230Z,85.20
2018-11-29T19:38:27.215Z,85.10
2018-11-29T19:40:55.190Z,85.70
2018-11-29T19:43:23.079Z,85.20
2018-11-29T19:45:51.049Z,85.10
2018-11-29T19:48:19.122Z,85.50
2018-11-29T19:50:47.131Z,86.10
2018-11-29T19:53:17.903Z,87.90
2018-11-29T19:55:47.292Z,86.80
2018-11-29T19:58:15.424Z,87.00
2018-11-29T20:00:44.517Z,87.10
2018-11-29T20:06:08.718Z,86.60
2018-11-29T20:08:36.756Z,86.30
2018-11-29T20:11:05.216Z,86.30
2018-11-29T20:13:33.314Z,86.00
2018-11-29T20:16:01.380Z,86.00
2018-11-29T20:18:29.712Z,86.10
2018-11-29T20:23:31.966Z,86.30
2018-11-29T20:26:00.267Z,86.60
2018-11-29T20:28:29.183Z,86.80
2018-11-29T20:30:57.149Z,87.50
2018-11-29T20:33:26.451Z,87.70
2018-11-29T20:35:54.411Z,87.40
2018-11-29T20:38:22.363Z,87.50
2018-11-29T20:40:50.378Z,87.50
2018-11-29T20:43:18.305Z,87.90
2018-11-29T20:45:55.430Z,88.10
2018-11-29T20:48:26.985Z,87.70
2018-11-29T20:50:56.562Z,87.20
2018-11-29T20:53:26.824Z,87.00
2018-11-29T20:55:54.811Z,87.20
2018-11-29T20:58:22.847Z,87.40
2018-11-29T21:00:50.845Z,87.80
2018-11-29T21:03:19.112Z,88.00
2018-11-29T21:05:47.152Z,88.20
2018-11-29T21:08:15.143Z,88.50
2018-11-29T21:10:43.161Z,88.80
2018-11-29T21:13:11.397Z,89.10
2018-11-29T21:15:41.262Z,89.00
2018-11-29T21:18:12.978Z,88.20
2018-11-29T21:20:41.979Z,87.90
2018-11-29T21:29:56.229Z,88.10
2018-11-29T21:32:27.393Z,89.10
2018-11-29T21:34:55.661Z,88.50
2018-11-29T21:37:23.624Z,88.30
2018-11-29T21:39:51.846Z,88.60
2018-11-29T21:42:19.839Z,88.80
2018-11-29T21:44:47.779Z,90.10
2018-11-29T21:47:15.747Z,90.30
2018-11-29T21:49:43.960Z,90.30
2018-11-29T21:52:11.901Z,90.10
2018-11-29T21:54:39.952Z,90.00
2018-11-29T21:57:07.915Z,89.80
2018-11-29T21:59:35.803Z,89.70
2018-11-29T22:02:03.775Z,89.80
2018-11-29T22:04:31.757Z,89.80
2018-11-29T22:07:01.589Z,89.60
2018-11-29T22:09:29.519Z,89.30
2018-11-29T22:11:57.678Z,89.20
2018-11-29T22:14:25.655Z,89.20
2018-11-29T22:16:53.589Z,89.30
2018-11-29T22:19:21.627Z,89.70
2018-11-29T22:21:49.684Z,89.70
2018-11-29T22:24:17.650Z,89.80
2018-11-29T22:26:45.933Z,89.90
2018-11-29T22:29:13.863Z,89.80
2018-11-29T22:31:41.883Z,89.70
2018-11-29T22:34:09.825Z,89.80
2018-11-29T22:36:38.532Z,90.00
2018-11-29T22:39:08.747Z,90.30
2018-11-29T22:41:36.686Z,90.50
2018-11-29T22:44:04.977Z,90.50
2018-11-29T22:46:32.937Z,90.60
2018-11-29T22:49:00.843Z,90.60
2018-11-29T22:51:28.843Z,90.70
2018-11-29T22:53:56.828Z,90.50
2018-11-29T22:56:24.772Z,90.50
2018-11-29T22:58:52.674Z,90.80
2018-11-29T23:01:25.563Z,90.80
2018-11-29T23:03:54.504Z,90.90
2018-11-29T23:06:22.555Z,91.30
2018-11-29T23:08:50.511Z,91.10
2018-11-29T23:11:20.389Z,90.90
2018-11-29T23:13:48.408Z,91.00
2018-11-29T23:16:19.286Z,91.00
2018-11-29T23:18:47.387Z,91.00
2018-11-29T23:21:15.384Z,90.90
2018-11-29T23:23:43.382Z,90.80
2018-11-29T23:26:11.415Z,90.80
2018-11-29T23:28:39.339Z,90.90
2018-11-29T23:31:08.105Z,91.10
2018-11-29T23:33:36.055Z,91.10
2018-11-29T23:36:04.251Z,91.00
2018-11-29T23:38:32.290Z,91.30
2018-11-29T23:41:00.292Z,91.20
2018-11-29T23:43:28.219Z,91.10
2018-11-29T23:45:56.164Z,91.00
2018-11-29T23:48:24.078Z,90.90
2018-11-29T23:50:52.013Z,90.80
2018-11-29T23:53:21.079Z,90.60
2018-11-29T23:55:53.191Z,90.60
2018-11-29T23:58:21.168Z,90.60
